DA3MD GGOV-GLRB
Flight info
| Callsign | DA3MD |
|---|---|
| Flight time | N/A |
| Altitude | 39000 |
| Route | GULAV DCT KIRTI DCT AXIRO DCT GIA DCT AMLEB DCT AGSIL DCT 082147N0122628W DCT TEKTO NAVPU1B |
| Aircraft | CL60/M-SBDE1E2E3FGHIJ1J4J5J7M3RWXYZ/LB1V1D1 |
Departure
| Time | 2026-04-21 11:42 |
|---|---|
| Airport | Osvaldo Vieira International Airport (GGOV) |
Arrival
| Time | N/A |
|---|---|
| Airport | Roberts International Airport (GLRB) |
| Time | Latitude | Longitude | Altitude | Speed | Heading |
|---|---|---|---|---|---|
| 2026-04-21 11:20 | 11.88808 | -15.65303 | 123 ft | 0 kts | 190° |
| 2026-04-21 11:39 | 11.88807 | -15.65303 | 123 ft | 0 kts | 190° |
| 2026-04-21 11:39 | 11.88798 | -15.65323 | 123 ft | 5 kts | 293° |
| 2026-04-21 11:39 | 11.88816 | -15.65370 | 124 ft | 8 kts | 290° |
| 2026-04-21 11:39 | 11.88836 | -15.65440 | 125 ft | 11 kts | 272° |
| 2026-04-21 11:40 | 11.88771 | -15.65487 | 127 ft | 11 kts | 197° |
| 2026-04-21 11:40 | 11.88702 | -15.65510 | 128 ft | 11 kts | 198° |
| 2026-04-21 11:40 | 11.88617 | -15.65539 | 130 ft | 11 kts | 199° |
| 2026-04-21 11:40 | 11.88531 | -15.65571 | 132 ft | 12 kts | 200° |
| 2026-04-21 11:41 | 11.88449 | -15.65599 | 133 ft | 12 kts | 197° |
| 2026-04-21 11:41 | 11.88351 | -15.65631 | 133 ft | 14 kts | 198° |
| 2026-04-21 11:41 | 11.88237 | -15.65672 | 132 ft | 16 kts | 200° |
| 2026-04-21 11:41 | 11.88137 | -15.65708 | 130 ft | 10 kts | 202° |
| 2026-04-21 11:42 | 11.88115 | -15.65798 | 126 ft | 15 kts | 295° |
| 2026-04-21 11:42 | 11.88213 | -15.65805 | 128 ft | 36 kts | 18° |
| 2026-04-21 11:42 | 11.88890 | -15.65582 | 125 ft | 155 kts | 18° |
| 2026-04-21 11:42 | 11.90082 | -15.65078 | 1047 ft | 181 kts | 26° |
| 2026-04-21 11:43 | 11.91296 | -15.64441 | 2327 ft | 199 kts | 26° |
| 2026-04-21 11:43 | 11.92568 | -15.63754 | 3843 ft | 208 kts | 36° |
| 2026-04-21 11:43 | 11.93438 | -15.62474 | 5466 ft | 211 kts | 78° |
| 2026-04-21 11:43 | 11.93484 | -15.61008 | 6945 ft | 211 kts | 99° |
| 2026-04-21 11:44 | 11.92935 | -15.59549 | 8451 ft | 211 kts | 123° |
| 2026-04-21 11:44 | 11.91765 | -15.58253 | 9170 ft | 251 kts | 136° |
| 2026-04-21 11:44 | 11.90395 | -15.57015 | 10034 ft | 276 kts | 137° |
| 2026-04-21 11:44 | 11.88828 | -15.55601 | 11183 ft | 290 kts | 137° |
| 2026-04-21 11:45 | 11.87183 | -15.54112 | 12343 ft | 302 kts | 137° |
| 2026-04-21 11:45 | 11.85539 | -15.52622 | 13421 ft | 313 kts | 138° |
| 2026-04-21 11:45 | 11.83709 | -15.50962 | 14644 ft | 318 kts | 139° |
| 2026-04-21 11:45 | 11.81975 | -15.49389 | 15821 ft | 321 kts | 140° |
| 2026-04-21 11:46 | 11.80329 | -15.47893 | 16811 ft | 326 kts | 140° |
| 2026-04-21 11:46 | 11.78455 | -15.46190 | 17808 ft | 333 kts | 140° |
| 2026-04-21 11:46 | 11.76605 | -15.44512 | 18287 ft | 354 kts | 140° |
| 2026-04-21 11:46 | 11.74554 | -15.42649 | 18689 ft | 376 kts | 140° |
| 2026-04-21 11:47 | 11.72332 | -15.40628 | 19330 ft | 390 kts | 140° |
| 2026-04-21 11:47 | 11.70216 | -15.38702 | 20069 ft | 397 kts | 140° |
| 2026-04-21 11:47 | 11.67979 | -15.36665 | 20786 ft | 405 kts | 140° |
| 2026-04-21 11:47 | 11.65645 | -15.34541 | 21444 ft | 413 kts | 140° |
| 2026-04-21 11:48 | 11.63434 | -15.32527 | 22052 ft | 420 kts | 140° |
| 2026-04-21 11:48 | 11.61010 | -15.30321 | 22704 ft | 427 kts | 140° |
| 2026-04-21 11:48 | 11.58549 | -15.28080 | 23418 ft | 433 kts | 139° |
| 2026-04-21 11:48 | 11.56254 | -15.25991 | 24038 ft | 438 kts | 139° |
| 2026-04-21 11:49 | 11.53745 | -15.23708 | 24733 ft | 442 kts | 139° |
| 2026-04-21 11:49 | 11.51199 | -15.21390 | 25363 ft | 447 kts | 139° |
| 2026-04-21 11:49 | 11.48810 | -15.19216 | 25880 ft | 452 kts | 139° |
| 2026-04-21 11:49 | 11.46236 | -15.16875 | 26382 ft | 458 kts | 139° |
| 2026-04-21 11:50 | 11.43612 | -15.14489 | 26892 ft | 464 kts | 139° |
| 2026-04-21 11:50 | 11.41125 | -15.12227 | 27409 ft | 467 kts | 138° |
| 2026-04-21 11:50 | 11.38425 | -15.09772 | 27934 ft | 471 kts | 138° |
| 2026-04-21 11:50 | 11.35835 | -15.07417 | 28362 ft | 475 kts | 138° |
| 2026-04-21 11:51 | 11.33219 | -15.05039 | 28755 ft | 481 kts | 138° |
| 2026-04-21 11:51 | 11.30432 | -15.02507 | 29264 ft | 483 kts | 138° |
| 2026-04-21 11:51 | 11.27878 | -15.00187 | 29811 ft | 482 kts | 139° |
| 2026-04-21 11:51 | 11.25161 | -14.97720 | 30300 ft | 483 kts | 139° |
| 2026-04-21 11:52 | 11.22421 | -14.95232 | 30740 ft | 485 kts | 139° |
| 2026-04-21 11:52 | 11.19851 | -14.92900 | 31158 ft | 486 kts | 140° |
| 2026-04-21 11:52 | 11.17060 | -14.90386 | 31565 ft | 488 kts | 141° |
| 2026-04-21 11:52 | 11.14204 | -14.88055 | 31942 ft | 488 kts | 144° |
| 2026-04-21 11:53 | 11.11445 | -14.85889 | 32274 ft | 490 kts | 144° |
| 2026-04-21 11:53 | 11.08405 | -14.83498 | 32615 ft | 491 kts | 144° |
| 2026-04-21 11:53 | 11.05553 | -14.81256 | 32943 ft | 492 kts | 144° |
| 2026-04-21 11:53 | 11.02667 | -14.78986 | 33286 ft | 493 kts | 144° |
| 2026-04-21 11:54 | 10.99715 | -14.76664 | 33623 ft | 493 kts | 144° |
| 2026-04-21 11:54 | 10.96889 | -14.74441 | 34149 ft | 488 kts | 144° |
| 2026-04-21 11:54 | 10.94071 | -14.72218 | 34742 ft | 482 kts | 144° |
| 2026-04-21 11:54 | 10.91201 | -14.69953 | 34854 ft | 487 kts | 144° |
| 2026-04-21 11:55 | 10.85480 | -14.65440 | 34853 ft | 497 kts | 144° |
| 2026-04-21 11:55 | 10.79770 | -14.60932 | 34859 ft | 504 kts | 144° |
| 2026-04-21 11:56 | 10.74137 | -14.56477 | 34859 ft | 509 kts | 143° |
| 2026-04-21 11:56 | 10.68237 | -14.51766 | 34869 ft | 512 kts | 143° |
| 2026-04-21 11:57 | 10.62408 | -14.47105 | 34869 ft | 494 kts | 143° |
| 2026-04-21 11:57 | 10.56744 | -14.42561 | 34872 ft | 484 kts | 143° |
| 2026-04-21 11:58 | 10.50990 | -14.37936 | 34874 ft | 482 kts | 143° |
| 2026-04-21 11:58 | 10.45406 | -14.33446 | 34877 ft | 481 kts | 143° |
| 2026-04-21 11:59 | 10.40112 | -14.29188 | 34887 ft | 480 kts | 143° |
| 2026-04-21 11:59 | 10.34609 | -14.24762 | 34886 ft | 479 kts | 143° |
| 2026-04-21 12:00 | 10.29062 | -14.20312 | 34892 ft | 479 kts | 143° |
| 2026-04-21 12:00 | 10.23616 | -14.15933 | 34888 ft | 479 kts | 143° |
| 2026-04-21 12:01 | 10.18219 | -14.11571 | 34891 ft | 479 kts | 143° |
| 2026-04-21 12:01 | 10.12723 | -14.07140 | 34891 ft | 479 kts | 143° |
| 2026-04-21 12:02 | 10.04834 | -14.00824 | 34892 ft | 478 kts | 144° |
| 2026-04-21 12:03 | 9.99160 | -13.96317 | 34899 ft | 478 kts | 144° |
| 2026-04-21 12:03 | 9.93684 | -13.91977 | 34895 ft | 478 kts | 143° |
| 2026-04-21 12:04 | 9.88236 | -13.87625 | 34891 ft | 478 kts | 143° |
| 2026-04-21 12:04 | 9.82677 | -13.83173 | 34894 ft | 478 kts | 143° |
| 2026-04-21 12:05 | 9.77899 | -13.79343 | 34892 ft | 478 kts | 143° |